createdAt,value
2022-08-22T00:00:24.665Z,3.40
2022-08-22T00:01:31.906Z,3.53
2022-08-22T00:02:38.821Z,3.40
2022-08-22T00:02:47.466Z,1.77
2022-08-22T00:02:56.792Z,2.00
2022-08-22T00:02:58.750Z,3.92
2022-08-22T00:02:59.391Z,3.38
2022-08-22T00:03:07.733Z,4.00
2022-08-22T00:03:47.323Z,3.25
2022-08-22T00:04:56.558Z,3.40
2022-08-22T00:06:10.067Z,3.33
2022-08-22T00:07:24.645Z,3.60
2022-08-22T00:08:32.291Z,2.72
2022-08-22T00:09:39.686Z,3.50
2022-08-22T00:10:52.095Z,3.30
2022-08-22T00:12:00.663Z,3.25
2022-08-22T00:13:08.145Z,3.35
2022-08-22T00:14:17.389Z,3.78
2022-08-22T00:15:42.522Z,3.15
2022-08-22T00:16:54.529Z,3.25
2022-08-22T00:18:02.649Z,2.90
2022-08-22T00:19:19.262Z,3.22
2022-08-22T00:20:28.169Z,2.92
2022-08-22T00:21:33.926Z,3.42
2022-08-22T00:22:44.483Z,2.55
2022-08-22T00:23:55.046Z,3.38
2022-08-22T00:25:07.404Z,2.97
2022-08-22T00:26:35.100Z,3.20
2022-08-22T00:27:45.006Z,3.60
2022-08-22T00:28:50.868Z,3.40
2022-08-22T00:29:55.642Z,3.90
2022-08-22T00:31:02.728Z,3.38
2022-08-22T00:32:09.075Z,3.80
2022-08-22T00:33:21.521Z,3.50
2022-08-22T00:34:26.470Z,3.08
2022-08-22T00:35:36.307Z,3.55
2022-08-22T00:36:40.705Z,3.60
2022-08-22T00:37:46.819Z,3.72
2022-08-22T00:39:07.565Z,3.45
2022-08-22T00:40:20.580Z,3.75
2022-08-22T00:41:32.315Z,3.75
2022-08-22T00:42:48.490Z,3.10
2022-08-22T00:44:23.719Z,3.08
2022-08-22T00:45:42.489Z,3.90
2022-08-22T00:47:03.111Z,3.58
2022-08-22T00:48:36.075Z,3.30
2022-08-22T00:49:49.499Z,3.10
2022-08-22T00:51:11.788Z,3.55
2022-08-22T00:52:32.807Z,2.97
2022-08-22T00:53:47.715Z,3.65
2022-08-22T00:55:02.357Z,3.75
2022-08-22T00:56:21.593Z,3.38
2022-08-22T00:57:39.372Z,2.97
2022-08-22T00:59:22.723Z,3.00
2022-08-22T01:00:27.801Z,3.30
2022-08-22T01:01:33.582Z,3.63
2022-08-22T01:02:52.440Z,3.45
2022-08-22T01:04:24.480Z,3.38
2022-08-22T01:05:53.877Z,3.53
2022-08-22T01:07:05.828Z,3.60
2022-08-22T01:08:19.461Z,3.25
2022-08-22T01:09:32.863Z,3.22
2022-08-22T01:10:49.541Z,3.72
2022-08-22T01:12:19.982Z,3.65
2022-08-22T01:13:35.719Z,3.28
2022-08-22T01:14:42.911Z,3.45
2022-08-22T01:15:45.817Z,3.35
2022-08-22T01:17:03.070Z,3.35
2022-08-22T01:18:29.159Z,3.35
2022-08-22T01:19:57.734Z,3.85
2022-08-22T01:21:35.025Z,4.07
2022-08-22T01:22:54.345Z,3.65
2022-08-22T01:24:29.300Z,4.07
2022-08-22T01:25:55.859Z,3.60
2022-08-22T01:27:44.255Z,3.75
2022-08-22T01:29:18.853Z,3.60
2022-08-22T01:31:12.806Z,4.43
2022-08-22T01:32:47.723Z,3.15
2022-08-22T01:34:36.096Z,3.95
2022-08-22T01:36:02.225Z,3.92
2022-08-22T01:37:33.973Z,3.35
2022-08-22T01:39:00.888Z,3.75
2022-08-22T01:40:31.646Z,4.60
2022-08-22T01:41:54.972Z,3.30
2022-08-22T01:43:08.293Z,4.55
2022-08-22T01:44:24.362Z,4.20
2022-08-22T01:45:43.240Z,3.83
2022-08-22T01:46:52.895Z,3.72
2022-08-22T01:47:58.444Z,4.28
2022-08-22T01:49:08.769Z,3.97
2022-08-22T01:50:14.587Z,3.67
2022-08-22T01:51:21.961Z,4.03
2022-08-22T01:52:34.442Z,4.15
2022-08-22T01:53:44.202Z,3.83
2022-08-22T01:54:51.070Z,4.28
2022-08-22T01:56:01.133Z,3.50
2022-08-22T01:57:05.298Z,4.00
2022-08-22T01:58:16.965Z,4.00
2022-08-22T01:59:25.389Z,3.78
2022-08-22T02:00:55.773Z,4.15
2022-08-22T02:02:01.839Z,4.03
2022-08-22T02:03:13.474Z,3.88
2022-08-22T02:04:28.879Z,4.55
2022-08-22T02:05:37.156Z,3.97
2022-08-22T02:06:45.945Z,3.80
2022-08-22T02:07:52.764Z,3.50
2022-08-22T02:09:02.264Z,3.40
2022-08-22T02:10:09.796Z,3.55
2022-08-22T02:11:35.483Z,3.92
2022-08-22T02:12:44.989Z,3.50
2022-08-22T02:13:55.089Z,3.85
2022-08-22T02:15:06.942Z,4.40
2022-08-22T02:16:13.278Z,4.03
2022-08-22T02:17:20.318Z,3.90
2022-08-22T02:18:26.189Z,3.65
2022-08-22T02:19:35.004Z,3.67
2022-08-22T02:20:41.360Z,4.15
2022-08-22T02:21:49.219Z,3.75
2022-08-22T02:22:55.132Z,4.00
2022-08-22T02:24:01.352Z,3.65
2022-08-22T02:25:09.763Z,3.60
2022-08-22T02:26:19.983Z,4.78
2022-08-22T02:27:29.878Z,3.97
2022-08-22T02:28:57.231Z,4.10
2022-08-22T02:30:04.124Z,3.25
2022-08-22T02:31:10.993Z,3.63
2022-08-22T02:32:22.868Z,4.60
2022-08-22T02:33:34.421Z,4.38
2022-08-22T02:34:39.942Z,3.83
2022-08-22T02:35:49.601Z,3.60
2022-08-22T02:36:58.144Z,4.22
2022-08-22T02:38:09.355Z,4.25
2022-08-22T02:39:19.768Z,3.60
2022-08-22T02:40:29.605Z,4.90
2022-08-22T02:41:37.418Z,3.83
2022-08-22T02:42:44.523Z,4.38
2022-08-22T02:43:49.791Z,4.05
2022-08-22T02:44:58.896Z,3.90
2022-08-22T02:46:05.569Z,3.75
2022-08-22T02:47:13.017Z,3.72
2022-08-22T02:48:27.791Z,3.58
2022-08-22T02:49:35.455Z,4.03
2022-08-22T02:50:53.943Z,4.07
2022-08-22T02:52:04.966Z,3.70
2022-08-22T02:53:12.901Z,3.80
2022-08-22T02:54:20.442Z,4.22
2022-08-22T02:55:33.494Z,4.32
2022-08-22T02:56:40.791Z,3.95
2022-08-22T02:57:45.482Z,4.28
2022-08-22T02:58:57.011Z,3.92
2022-08-22T03:00:30.709Z,3.75
2022-08-22T03:01:40.114Z,4.40
2022-08-22T03:02:59.992Z,3.67
2022-08-22T03:04:26.762Z,3.90
2022-08-22T03:05:30.748Z,4.32
2022-08-22T03:06:38.778Z,3.60
2022-08-22T03:07:45.972Z,4.22
2022-08-22T03:09:23.269Z,3.92
2022-08-22T03:10:28.635Z,4.45
2022-08-22T03:11:33.717Z,3.22
2022-08-22T03:12:44.759Z,4.00
2022-08-22T03:13:57.576Z,4.78
2022-08-22T03:15:04.451Z,3.95
2022-08-22T03:16:12.020Z,3.97
2022-08-22T03:17:17.861Z,4.15
2022-08-22T03:18:26.182Z,4.13
2022-08-22T03:19:30.877Z,3.95
2022-08-22T03:20:43.511Z,4.40
2022-08-22T03:21:50.504Z,4.38
2022-08-22T03:22:59.886Z,3.85
2022-08-22T03:24:07.789Z,3.72
2022-08-22T03:25:18.633Z,4.03
2022-08-22T03:26:31.359Z,4.30
2022-08-22T03:27:36.826Z,3.75
2022-08-22T03:28:59.125Z,4.25
2022-08-22T03:30:05.210Z,4.15
2022-08-22T03:31:16.333Z,3.75
2022-08-22T03:32:19.997Z,4.35
2022-08-22T03:33:24.471Z,4.00
2022-08-22T03:34:27.004Z,4.25
2022-08-22T03:35:36.433Z,4.10
2022-08-22T03:36:39.076Z,3.90
2022-08-22T03:37:42.646Z,3.45
2022-08-22T03:39:07.267Z,3.63
2022-08-22T03:40:23.620Z,4.20
2022-08-22T03:41:59.103Z,4.20
2022-08-22T03:43:16.272Z,4.50
2022-08-22T03:44:50.665Z,3.78
2022-08-22T03:46:18.811Z,4.18
2022-08-22T03:47:50.659Z,4.63
2022-08-22T03:49:39.478Z,4.22
2022-08-22T03:50:54.740Z,4.18
2022-08-22T03:52:26.151Z,4.20
2022-08-22T03:53:51.193Z,3.92
2022-08-22T03:55:13.314Z,3.92
2022-08-22T03:56:26.904Z,4.00
2022-08-22T03:58:04.769Z,4.38
2022-08-22T03:59:25.379Z,4.20
2022-08-22T04:00:43.779Z,4.25
2022-08-22T04:02:03.422Z,4.57
2022-08-22T04:03:41.541Z,4.55
2022-08-22T04:05:06.837Z,3.90
2022-08-22T04:06:35.323Z,4.47
2022-08-22T04:08:24.257Z,3.38
2022-08-22T04:09:44.490Z,3.92
2022-08-22T04:11:35.795Z,4.88
2022-08-22T04:12:45.372Z,4.70
2022-08-22T04:14:06.300Z,4.53
2022-08-22T04:15:30.350Z,5.40
2022-08-22T04:17:02.969Z,5.18
2022-08-22T04:18:40.477Z,5.03
2022-08-22T04:19:58.876Z,5.05
2022-08-22T04:21:20.609Z,4.30
2022-08-22T04:22:35.091Z,4.57
2022-08-22T04:24:00.303Z,5.63
2022-08-22T04:25:07.971Z,4.38
2022-08-22T04:26:15.780Z,4.63
2022-08-22T04:27:23.703Z,5.10
2022-08-22T04:28:29.154Z,5.15
2022-08-22T04:29:34.581Z,4.97
2022-08-22T04:30:42.672Z,5.28
2022-08-22T04:31:50.824Z,5.63
2022-08-22T04:32:56.578Z,5.50
2022-08-22T04:34:04.777Z,5.13
2022-08-22T04:35:10.189Z,5.03
2022-08-22T04:36:18.644Z,5.38
2022-08-22T04:37:25.769Z,4.38
2022-08-22T04:38:32.158Z,4.65
2022-08-22T04:39:38.370Z,5.05
2022-08-22T04:40:46.455Z,5.57
2022-08-22T04:41:52.536Z,5.43
2022-08-22T04:43:03.634Z,4.57
2022-08-22T04:44:14.409Z,5.28
2022-08-22T04:45:19.219Z,4.47
2022-08-22T04:46:33.710Z,5.22
2022-08-22T04:47:42.161Z,4.78
2022-08-22T04:48:49.549Z,4.68
2022-08-22T04:49:56.944Z,4.40
2022-08-22T04:51:03.944Z,4.30
2022-08-22T04:52:12.537Z,4.55
2022-08-22T04:53:24.720Z,4.85
2022-08-22T04:54:38.762Z,4.90
2022-08-22T04:55:48.595Z,4.47
2022-08-22T04:56:59.043Z,4.82
2022-08-22T04:58:12.354Z,5.57
2022-08-22T04:59:17.887Z,4.70
2022-08-22T05:00:19.522Z,4.85
2022-08-22T05:01:25.568Z,5.22
2022-08-22T05:02:27.820Z,4.75
2022-08-22T05:03:31.498Z,4.95
2022-08-22T05:04:36.507Z,4.88
2022-08-22T05:05:43.266Z,4.75
2022-08-22T05:06:50.309Z,5.00
2022-08-22T05:07:55.438Z,4.50
2022-08-22T05:09:01.528Z,4.60
2022-08-22T05:10:10.515Z,4.05
2022-08-22T05:11:15.075Z,4.47
2022-08-22T05:12:21.193Z,4.45
2022-08-22T05:13:27.579Z,4.20
2022-08-22T05:14:36.543Z,5.05
2022-08-22T05:15:39.366Z,3.72
2022-08-22T05:16:44.117Z,4.55
2022-08-22T05:17:47.579Z,4.40
2022-08-22T05:18:52.176Z,4.80
2022-08-22T05:19:56.001Z,4.57
2022-08-22T05:21:01.224Z,4.20
2022-08-22T05:22:03.356Z,3.90
2022-08-22T05:23:16.972Z,4.88
2022-08-22T05:24:23.630Z,4.13
2022-08-22T05:25:33.517Z,4.75
2022-08-22T05:26:41.009Z,5.07
2022-08-22T05:27:45.780Z,3.78
2022-08-22T05:28:53.295Z,4.15
2022-08-22T05:30:02.083Z,4.22
2022-08-22T05:31:06.226Z,4.72
2022-08-22T05:32:13.422Z,3.65
2022-08-22T05:33:19.664Z,3.53
2022-08-22T05:34:25.102Z,3.80
2022-08-22T05:35:32.264Z,4.55
2022-08-22T05:36:38.102Z,4.47
2022-08-22T05:37:43.989Z,4.18
2022-08-22T05:38:50.353Z,4.20
2022-08-22T05:39:55.828Z,4.57
2022-08-22T05:41:01.957Z,4.78
2022-08-22T05:42:05.262Z,4.10
2022-08-22T05:43:10.961Z,3.95
2022-08-22T05:44:21.350Z,4.38
2022-08-22T05:45:24.134Z,4.30
2022-08-22T05:46:35.678Z,4.93
2022-08-22T05:47:41.153Z,4.38
2022-08-22T05:48:48.320Z,4.60
2022-08-22T05:49:58.798Z,4.07
2022-08-22T05:51:06.032Z,4.50
2022-08-22T05:52:12.130Z,4.20
2022-08-22T05:53:17.793Z,4.63
2022-08-22T05:54:33.733Z,4.28
2022-08-22T05:55:41.591Z,4.63
2022-08-22T05:56:47.402Z,4.85
2022-08-22T05:57:53.244Z,5.15
2022-08-22T05:59:00.000Z,4.43
2022-08-22T06:00:07.578Z,4.55
2022-08-22T06:01:22.483Z,4.65
2022-08-22T06:02:33.590Z,4.32
2022-08-22T06:03:39.012Z,4.80
2022-08-22T06:04:46.096Z,4.15
2022-08-22T06:05:52.445Z,4.55
2022-08-22T06:06:56.836Z,4.72
2022-08-22T06:08:04.304Z,4.65
2022-08-22T06:09:08.879Z,4.10
2022-08-22T06:10:24.671Z,4.43
2022-08-22T06:11:33.791Z,4.47
2022-08-22T06:12:38.928Z,4.22
2022-08-22T06:13:52.189Z,4.82
2022-08-22T06:14:59.323Z,4.72
2022-08-22T06:16:09.741Z,4.95
2022-08-22T06:17:16.953Z,4.03
2022-08-22T06:18:23.469Z,4.40
2022-08-22T06:19:25.146Z,4.45
2022-08-22T06:20:31.015Z,4.03
2022-08-22T06:21:39.201Z,4.13
2022-08-22T06:22:46.863Z,4.25
2022-08-22T06:23:51.055Z,4.10
2022-08-22T06:24:55.749Z,4.63
2022-08-22T06:26:00.075Z,4.03
2022-08-22T06:27:06.818Z,4.07
2022-08-22T06:28:10.158Z,4.28
2022-08-22T06:29:17.121Z,4.63
2022-08-22T06:30:19.306Z,4.07
2022-08-22T06:31:26.651Z,4.47
2022-08-22T06:32:58.517Z,4.15
2022-08-22T06:33:58.571Z,4.72
2022-08-22T06:35:04.291Z,4.90
2022-08-22T06:36:27.055Z,4.80
2022-08-22T06:37:34.182Z,4.78
2022-08-22T06:38:52.280Z,4.88
2022-08-22T06:39:55.368Z,4.53
2022-08-22T06:40:58.649Z,4.78
2022-08-22T06:42:05.987Z,4.68
2022-08-22T06:43:07.732Z,4.47
2022-08-22T06:44:12.091Z,4.57
2022-08-22T06:45:18.898Z,5.18
2022-08-22T06:46:24.568Z,4.40
2022-08-22T06:47:29.825Z,4.53
2022-08-22T06:48:31.797Z,4.75
2022-08-22T06:49:36.437Z,4.13
2022-08-22T06:50:40.143Z,5.00
2022-08-22T06:51:43.165Z,5.10
2022-08-22T06:52:50.954Z,4.60
2022-08-22T06:53:57.778Z,5.18
2022-08-22T06:55:05.263Z,4.40
2022-08-22T06:56:07.313Z,4.30
2022-08-22T06:57:26.685Z,4.65
2022-08-22T06:58:31.001Z,4.63
2022-08-22T06:59:39.338Z,4.35
2022-08-22T07:00:44.579Z,4.50
2022-08-22T07:01:52.185Z,4.15
2022-08-22T07:02:57.592Z,4.88
2022-08-22T07:04:03.775Z,4.30
2022-08-22T07:05:09.812Z,4.60
2022-08-22T07:06:15.692Z,4.72
2022-08-22T07:07:19.888Z,4.18
2022-08-22T07:08:23.016Z,4.72
2022-08-22T07:09:28.095Z,4.72
2022-08-22T07:10:29.727Z,4.38
2022-08-22T07:11:33.930Z,4.50
2022-08-22T07:12:39.119Z,4.85
2022-08-22T07:13:45.084Z,4.70
2022-08-22T07:14:49.979Z,4.68
2022-08-22T07:15:56.261Z,3.90
2022-08-22T07:17:04.412Z,4.05
2022-08-22T07:18:09.005Z,4.68
2022-08-22T07:19:23.113Z,4.60
2022-08-22T07:20:28.610Z,5.40
2022-08-22T07:21:34.238Z,4.60
2022-08-22T07:22:39.225Z,4.20
2022-08-22T07:23:44.855Z,4.25
2022-08-22T07:24:49.286Z,4.85
2022-08-22T07:25:54.253Z,4.03
2022-08-22T07:27:12.806Z,4.22
2022-08-22T07:28:36.538Z,3.83
2022-08-22T07:29:45.891Z,4.70
2022-08-22T07:30:56.126Z,4.50
2022-08-22T07:32:06.163Z,4.70
2022-08-22T07:33:26.286Z,4.40
2022-08-22T07:34:40.270Z,4.50
2022-08-22T07:35:53.681Z,3.65
2022-08-22T07:36:59.097Z,4.10
2022-08-22T07:38:08.924Z,4.47
2022-08-22T07:39:21.617Z,4.00
2022-08-22T07:40:30.077Z,4.18
2022-08-22T07:41:38.876Z,3.95
2022-08-22T07:42:45.216Z,4.05
2022-08-22T07:43:51.792Z,3.80
2022-08-22T07:45:04.632Z,3.50
2022-08-22T07:46:12.035Z,3.28
2022-08-22T07:47:26.660Z,3.55
2022-08-22T07:48:33.431Z,3.80
2022-08-22T07:49:38.657Z,3.28
2022-08-22T07:50:50.493Z,3.50
2022-08-22T07:51:54.369Z,3.85
2022-08-22T07:53:04.603Z,3.83
2022-08-22T07:54:09.249Z,3.55
2022-08-22T07:55:17.216Z,3.40
2022-08-22T07:56:22.772Z,3.92
2022-08-22T07:57:29.565Z,3.92
2022-08-22T07:58:34.891Z,3.92
2022-08-22T07:59:39.224Z,4.63
2022-08-22T08:00:44.630Z,3.28
2022-08-22T08:01:49.941Z,3.65
2022-08-22T08:02:56.139Z,3.67
2022-08-22T08:04:05.714Z,3.42
2022-08-22T08:05:07.724Z,3.60
2022-08-22T08:06:11.192Z,3.80
2022-08-22T08:07:17.018Z,4.00
2022-08-22T08:08:22.387Z,4.13
2022-08-22T08:09:26.044Z,3.70
2022-08-22T08:10:31.329Z,4.22
2022-08-22T08:11:36.357Z,4.18
2022-08-22T08:12:41.494Z,3.65
2022-08-22T08:13:46.279Z,4.30
2022-08-22T08:14:52.354Z,4.45
2022-08-22T08:15:55.265Z,4.38
2022-08-22T08:17:02.672Z,4.60
2022-08-22T08:18:11.493Z,4.40
2022-08-22T08:19:16.573Z,4.25
2022-08-22T08:20:21.656Z,4.07
2022-08-22T08:21:30.845Z,4.25
2022-08-22T08:22:34.040Z,4.13
2022-08-22T08:23:39.695Z,4.13
2022-08-22T08:24:43.819Z,4.38
2022-08-22T08:25:54.847Z,3.92
2022-08-22T08:27:16.749Z,4.50
2022-08-22T08:28:38.042Z,3.92
2022-08-22T08:29:40.943Z,4.18
2022-08-22T08:30:46.981Z,4.20
2022-08-22T08:31:49.631Z,4.20
2022-08-22T08:32:57.459Z,3.50
2022-08-22T08:34:22.687Z,4.13
2022-08-22T08:35:32.861Z,3.65
2022-08-22T08:36:50.180Z,3.63
2022-08-22T08:37:56.398Z,4.00
2022-08-22T08:39:10.603Z,3.97
2022-08-22T08:40:22.249Z,4.00
2022-08-22T08:41:41.086Z,4.22
2022-08-22T08:43:17.041Z,3.70
2022-08-22T08:44:42.359Z,4.50
2022-08-22T08:45:59.122Z,3.47
2022-08-22T08:47:16.768Z,2.67
2022-08-22T08:48:35.152Z,3.28
2022-08-22T08:49:54.708Z,3.58
2022-08-22T08:51:11.295Z,3.55
2022-08-22T08:52:58.310Z,3.53
2022-08-22T08:54:14.774Z,3.30
2022-08-22T08:55:30.943Z,3.20
2022-08-22T08:56:38.794Z,4.03
2022-08-22T08:57:58.588Z,4.68
2022-08-22T08:59:18.412Z,3.15
2022-08-22T09:00:23.001Z,3.90
2022-08-22T09:01:46.174Z,3.30
2022-08-22T09:03:00.605Z,3.67
2022-08-22T09:04:22.348Z,3.35
2022-08-22T09:05:48.184Z,3.00
2022-08-22T09:07:26.577Z,3.28
2022-08-22T09:09:01.657Z,3.63
2022-08-22T09:10:16.583Z,4.00
2022-08-22T09:12:00.659Z,3.70
2022-08-22T09:13:13.209Z,3.38
2022-08-22T09:14:26.224Z,3.50
2022-08-22T09:15:42.161Z,3.10
2022-08-22T09:16:54.915Z,3.30
2022-08-22T09:18:24.995Z,4.28
2022-08-22T09:19:55.908Z,3.13
2022-08-22T09:21:30.587Z,3.10
2022-08-22T09:23:17.623Z,2.80
2022-08-22T09:25:06.177Z,2.42
2022-08-22T09:26:16.934Z,2.50
2022-08-22T09:27:24.555Z,2.47
2022-08-22T09:28:30.202Z,2.33
2022-08-22T09:29:54.446Z,2.78
2022-08-22T09:31:47.511Z,2.15
2022-08-22T09:32:58.418Z,2.70
2022-08-22T09:34:05.843Z,2.65
2022-08-22T09:35:17.642Z,2.50
2022-08-22T09:36:27.575Z,2.53
2022-08-22T09:37:43.096Z,2.50
2022-08-22T09:38:55.274Z,2.60
2022-08-22T09:40:00.828Z,2.53
2022-08-22T09:41:14.721Z,2.90
2022-08-22T09:42:21.737Z,2.72
2022-08-22T09:43:33.804Z,3.05
2022-08-22T09:44:40.719Z,2.40
2022-08-22T09:45:52.639Z,2.40
2022-08-22T09:47:06.027Z,2.97
2022-08-22T09:48:18.630Z,2.72
2022-08-22T09:49:27.958Z,2.78
2022-08-22T09:50:33.257Z,2.70
2022-08-22T09:51:40.925Z,2.30
2022-08-22T09:53:02.402Z,2.58
2022-08-22T09:54:31.062Z,2.58
2022-08-22T09:55:43.843Z,2.83
2022-08-22T09:56:56.612Z,2.42
2022-08-22T09:58:03.455Z,2.00
2022-08-22T09:59:09.791Z,2.30
2022-08-22T10:00:22.416Z,2.17
2022-08-22T10:01:26.413Z,2.30
2022-08-22T10:02:43.396Z,2.35
2022-08-22T10:04:19.826Z,1.98
2022-08-22T10:05:35.270Z,2.78
2022-08-22T10:06:55.656Z,2.30
2022-08-22T10:08:11.349Z,2.63
2022-08-22T10:09:25.232Z,1.90
2022-08-22T10:10:46.321Z,2.78
2022-08-22T10:11:53.453Z,2.20
2022-08-22T10:12:59.706Z,2.03
2022-08-22T10:14:04.678Z,2.40
2022-08-22T10:15:17.321Z,2.17
2022-08-22T10:16:27.544Z,2.63
2022-08-22T10:17:31.336Z,2.50
2022-08-22T10:18:42.166Z,1.80
2022-08-22T10:19:59.477Z,2.00
2022-08-22T10:21:08.822Z,1.77
2022-08-22T10:22:22.076Z,2.10
2022-08-22T10:23:29.542Z,1.90
2022-08-22T10:24:43.669Z,1.80
2022-08-22T10:25:50.923Z,2.15
2022-08-22T10:26:54.577Z,2.20
2022-08-22T10:28:10.342Z,2.40
2022-08-22T10:29:36.830Z,2.08
2022-08-22T10:30:47.118Z,1.83
2022-08-22T10:31:59.404Z,1.98
2022-08-22T10:33:05.756Z,1.92
2022-08-22T10:34:11.086Z,1.38
2022-08-22T10:35:20.946Z,1.70
2022-08-22T10:36:31.918Z,1.73
2022-08-22T10:37:39.549Z,1.77
2022-08-22T10:38:50.338Z,2.08
2022-08-22T10:39:58.070Z,1.60
2022-08-22T10:41:09.489Z,1.55
2022-08-22T10:42:23.084Z,1.65
2022-08-22T10:43:30.514Z,2.08
2022-08-22T10:44:39.426Z,1.73
2022-08-22T10:45:46.524Z,1.92
2022-08-22T10:46:52.491Z,1.40
2022-08-22T10:48:31.063Z,1.60
2022-08-22T10:49:37.018Z,1.60
2022-08-22T10:50:43.105Z,1.60
2022-08-22T10:51:48.239Z,1.60
2022-08-22T10:53:15.594Z,1.50
2022-08-22T10:54:34.150Z,1.60
2022-08-22T10:55:37.730Z,1.50
2022-08-22T10:56:44.100Z,1.50
2022-08-22T10:58:00.206Z,1.70
2022-08-22T10:59:13.178Z,1.40
2022-08-22T11:00:38.328Z,1.60
2022-08-22T11:02:00.717Z,1.75
2022-08-22T11:03:18.656Z,1.90
2022-08-22T11:04:34.222Z,1.98
2022-08-22T11:05:40.221Z,1.80
2022-08-22T11:06:45.415Z,1.92
2022-08-22T11:07:51.436Z,1.70
2022-08-22T11:09:21.119Z,1.55
2022-08-22T11:10:27.561Z,2.15
2022-08-22T11:11:41.079Z,1.65
2022-08-22T11:12:44.887Z,1.73
2022-08-22T11:14:06.782Z,1.85
2022-08-22T11:15:27.262Z,1.90
2022-08-22T11:16:54.958Z,1.67
2022-08-22T11:18:15.733Z,1.80
2022-08-22T11:19:38.856Z,1.70
2022-08-22T11:20:50.240Z,1.70
2022-08-22T11:22:03.647Z,1.73
2022-08-22T11:23:16.924Z,1.70
2022-08-22T11:24:56.731Z,1.85
2022-08-22T11:26:09.979Z,1.30
2022-08-22T11:27:15.614Z,1.80
2022-08-22T11:28:34.221Z,1.95
2022-08-22T11:29:41.152Z,1.90
2022-08-22T11:30:54.942Z,1.70
2022-08-22T11:32:05.671Z,1.30
2022-08-22T11:33:33.884Z,1.67
2022-08-22T11:34:54.786Z,1.75
2022-08-22T11:36:09.248Z,1.50
2022-08-22T11:37:23.893Z,1.67
2022-08-22T11:38:50.946Z,2.78
2022-08-22T11:40:07.565Z,1.70
2022-08-22T11:41:19.877Z,1.70
2022-08-22T11:42:29.598Z,1.67
2022-08-22T11:43:47.277Z,1.23
2022-08-22T11:44:53.796Z,1.60
2022-08-22T11:45:59.315Z,1.83
2022-08-22T11:47:03.277Z,1.90
2022-08-22T11:48:10.196Z,1.85
2022-08-22T11:49:28.195Z,1.60
2022-08-22T11:50:37.246Z,1.80
2022-08-22T11:51:59.229Z,1.63
2022-08-22T11:53:15.510Z,1.60
2022-08-22T11:54:31.089Z,1.73
2022-08-22T11:55:37.974Z,1.85
2022-08-22T11:56:45.313Z,1.80
2022-08-22T11:57:49.915Z,1.98
2022-08-22T11:58:57.744Z,1.95
2022-08-22T12:00:13.952Z,2.00
2022-08-22T12:01:21.579Z,1.88
2022-08-22T12:02:27.105Z,1.65
2022-08-22T12:03:44.892Z,1.73
2022-08-22T12:04:49.119Z,1.70
2022-08-22T12:05:54.828Z,1.88
2022-08-22T12:07:03.311Z,1.92
2022-08-22T12:08:11.269Z,1.65
2022-08-22T12:09:31.805Z,1.48
2022-08-22T12:10:38.744Z,1.50
2022-08-22T12:11:49.707Z,1.60
2022-08-22T12:13:01.241Z,1.90
2022-08-22T12:14:06.031Z,1.92
2022-08-22T12:15:15.391Z,1.70
2022-08-22T12:16:23.885Z,1.38
2022-08-22T12:17:55.559Z,2.05
2022-08-22T12:19:10.790Z,1.90
2022-08-22T12:20:27.152Z,1.95
2022-08-22T12:21:41.952Z,1.90
2022-08-22T12:22:52.523Z,1.90
2022-08-22T12:24:19.290Z,1.85
2022-08-22T12:25:33.615Z,1.67
2022-08-22T12:26:46.654Z,2.00
2022-08-22T12:27:57.346Z,1.80
2022-08-22T12:29:20.104Z,1.63
2022-08-22T12:30:40.823Z,1.60
2022-08-22T12:32:27.754Z,2.13
2022-08-22T12:33:55.042Z,1.70
2022-08-22T12:35:14.027Z,2.25
2022-08-22T12:36:37.312Z,2.03
2022-08-22T12:37:52.322Z,2.03
2022-08-22T12:39:12.494Z,1.83
2022-08-22T12:40:26.501Z,2.10
2022-08-22T12:41:46.737Z,2.13
2022-08-22T12:43:00.720Z,2.05
2022-08-22T12:44:17.229Z,1.83
2022-08-22T12:45:40.590Z,2.15
2022-08-22T12:46:51.354Z,1.60
2022-08-22T12:48:14.311Z,1.80
2022-08-22T12:49:28.287Z,1.85
2022-08-22T12:50:39.349Z,1.70
2022-08-22T12:51:55.859Z,1.70
2022-08-22T12:53:20.284Z,2.10
2022-08-22T12:54:55.279Z,1.88
2022-08-22T12:56:04.852Z,2.13
2022-08-22T12:57:23.852Z,2.05
2022-08-22T12:58:40.430Z,2.05
2022-08-22T12:59:45.845Z,2.30
2022-08-22T13:00:49.565Z,3.45
2022-08-22T13:01:54.705Z,2.13
2022-08-22T13:03:00.511Z,1.88
2022-08-22T13:04:05.125Z,2.17
2022-08-22T13:05:19.707Z,2.35
2022-08-22T13:06:48.844Z,2.10
2022-08-22T13:07:55.437Z,1.85
2022-08-22T13:08:58.496Z,2.40
2022-08-22T13:10:03.899Z,2.10
2022-08-22T13:11:22.576Z,2.13
2022-08-22T13:12:33.980Z,2.20
2022-08-22T13:13:40.110Z,2.25
2022-08-22T13:14:45.608Z,1.90
2022-08-22T13:15:55.677Z,2.05
2022-08-22T13:16:59.631Z,2.15
2022-08-22T13:18:25.203Z,2.25
2022-08-22T13:19:29.927Z,1.73
2022-08-22T13:20:33.472Z,2.30
2022-08-22T13:21:39.413Z,2.40
2022-08-22T13:22:45.570Z,2.08
2022-08-22T13:23:53.104Z,2.15
2022-08-22T13:24:59.849Z,2.00
2022-08-22T13:26:08.027Z,2.03
2022-08-22T13:27:16.465Z,2.00
2022-08-22T13:28:23.817Z,2.40
2022-08-22T13:29:42.846Z,2.28
2022-08-22T13:30:45.741Z,2.00
2022-08-22T13:31:52.641Z,1.90
2022-08-22T13:33:05.143Z,1.88
2022-08-22T13:34:13.360Z,2.42
2022-08-22T13:35:23.872Z,2.30
2022-08-22T13:36:28.022Z,1.77
2022-08-22T13:37:34.531Z,2.00
2022-08-22T13:38:46.353Z,2.20
2022-08-22T13:39:50.454Z,2.00
2022-08-22T13:40:56.480Z,2.10
2022-08-22T13:42:01.210Z,1.90
2022-08-22T13:43:06.807Z,2.63
2022-08-22T13:44:20.311Z,2.00
2022-08-22T13:45:27.470Z,2.08
2022-08-22T13:46:30.318Z,2.15
2022-08-22T13:47:39.493Z,2.03
2022-08-22T13:48:49.420Z,2.20
2022-08-22T13:49:54.505Z,2.45
2022-08-22T13:51:06.027Z,2.25
2022-08-22T13:52:29.275Z,2.08
2022-08-22T13:53:38.515Z,2.85
2022-08-22T13:54:53.802Z,2.38
2022-08-22T13:55:59.765Z,2.05
2022-08-22T13:57:11.042Z,1.77
2022-08-22T13:58:20.356Z,1.90
2022-08-22T13:59:49.615Z,1.88
2022-08-22T14:01:13.990Z,2.42
2022-08-22T14:02:23.269Z,2.10
2022-08-22T14:03:39.819Z,2.15
2022-08-22T14:04:44.024Z,2.10
2022-08-22T14:05:48.465Z,2.05
2022-08-22T14:06:59.094Z,2.00
2022-08-22T14:08:12.514Z,2.17
2022-08-22T14:09:31.366Z,2.75
2022-08-22T14:10:37.304Z,2.10
2022-08-22T14:11:44.588Z,2.20
2022-08-22T14:13:05.939Z,2.45
2022-08-22T14:14:09.645Z,2.17
2022-08-22T14:15:13.824Z,2.10
2022-08-22T14:16:23.934Z,2.05
2022-08-22T14:17:31.757Z,2.25
2022-08-22T14:18:37.907Z,2.15
2022-08-22T14:19:59.280Z,1.88
2022-08-22T14:21:18.879Z,2.70
2022-08-22T14:22:32.116Z,2.30
2022-08-22T14:23:36.421Z,2.13
2022-08-22T14:24:45.619Z,2.20
2022-08-22T14:25:48.198Z,2.00
2022-08-22T14:26:54.964Z,2.10
2022-08-22T14:28:06.338Z,2.38
2022-08-22T14:29:15.452Z,2.17
2022-08-22T14:30:21.433Z,1.92
2022-08-22T14:31:27.904Z,1.70
2022-08-22T14:32:41.956Z,2.28
2022-08-22T14:33:47.926Z,2.20
2022-08-22T14:34:54.687Z,2.00
2022-08-22T14:36:02.604Z,2.17
2022-08-22T14:37:11.463Z,2.10
2022-08-22T14:38:30.362Z,2.70
2022-08-22T14:39:37.016Z,2.55
2022-08-22T14:40:45.214Z,2.13
2022-08-22T14:41:56.532Z,2.30
2022-08-22T14:43:06.327Z,2.40
2022-08-22T14:44:14.186Z,2.50
2022-08-22T14:45:19.297Z,2.03
2022-08-22T14:46:29.742Z,2.67
2022-08-22T14:47:55.275Z,2.08
2022-08-22T14:49:20.752Z,2.10
2022-08-22T14:50:37.270Z,2.25
2022-08-22T14:51:39.030Z,2.38
2022-08-22T14:52:44.091Z,2.25
2022-08-22T14:53:46.587Z,2.30
2022-08-22T14:54:50.981Z,1.98
2022-08-22T14:55:59.031Z,1.90
2022-08-22T14:57:03.931Z,2.33
2022-08-22T14:58:17.457Z,2.45
2022-08-22T14:59:33.491Z,2.20
2022-08-22T15:00:38.711Z,2.40
2022-08-22T15:01:55.884Z,2.40
2022-08-22T15:03:10.424Z,2.30
2022-08-22T15:04:18.899Z,2.30
2022-08-22T15:05:23.378Z,2.40
2022-08-22T15:06:36.149Z,2.25
2022-08-22T15:07:39.163Z,2.10
2022-08-22T15:08:49.562Z,2.13
2022-08-22T15:09:55.138Z,2.10
2022-08-22T15:11:17.366Z,2.30
2022-08-22T15:12:25.668Z,2.50
2022-08-22T15:13:29.619Z,2.10
2022-08-22T15:14:45.649Z,2.25
2022-08-22T15:15:56.005Z,2.58
2022-08-22T15:17:07.236Z,2.25
2022-08-22T15:18:18.199Z,2.13
2022-08-22T15:19:25.662Z,2.00
2022-08-22T15:20:34.141Z,2.28
2022-08-22T15:21:41.415Z,2.50
2022-08-22T15:22:46.023Z,2.13
2022-08-22T15:23:49.134Z,2.58
2022-08-22T15:24:56.601Z,2.22
2022-08-22T15:26:01.213Z,2.08
2022-08-22T15:27:06.868Z,2.00
2022-08-22T15:28:13.978Z,2.40
2022-08-22T15:29:20.308Z,1.90
2022-08-22T15:30:34.362Z,2.10
2022-08-22T15:31:41.564Z,2.25
2022-08-22T15:32:50.830Z,2.30
2022-08-22T15:33:52.944Z,2.25
2022-08-22T15:35:05.045Z,2.03
2022-08-22T15:36:15.837Z,2.45
2022-08-22T15:37:32.496Z,2.40
2022-08-22T15:38:36.374Z,2.38
2022-08-22T15:39:59.743Z,2.10
2022-08-22T15:41:36.608Z,2.20
2022-08-22T15:42:43.573Z,2.45
2022-08-22T15:43:47.118Z,2.13
2022-08-22T15:44:54.964Z,2.08
2022-08-22T15:46:17.866Z,1.90
2022-08-22T15:47:31.554Z,1.80
2022-08-22T15:48:39.053Z,1.67
2022-08-22T15:49:50.686Z,2.30
2022-08-22T15:50:57.720Z,2.47
2022-08-22T15:52:11.492Z,2.20
2022-08-22T15:53:19.384Z,2.15
2022-08-22T15:54:24.766Z,2.15